Time;durP1;ratioP1;P1;durP2;ratioP2;P2;SDS_P1;SDS_P2;PMS_P1;PMS_P2;Temp;Humidity;BMP_temperature;BMP_pressure;BME280_temperature;BME280_humidity;BME280_pressure;Samples;Min_cycle;Max_cycle;Signal;HPM_P1;HPM_P2
2024/04/10 00:02:09;;;;;;;4.40;0.90;;;10.50;99.90;;;;;;5356190;26;20312;-71
2024/04/10 00:04:38;;;;;;;3.47;1.00;;;10.50;99.90;;;;;;5349096;26;20527;-70
2024/04/10 00:07:04;;;;;;;0.90;0.60;;;10.50;99.90;;;;;;5355350;26;20470;-71
2024/04/10 00:09:32;;;;;;;3.00;1.70;;;10.50;99.90;;;;;;5352365;26;20597;-70
2024/04/10 00:11:58;;;;;;;1.90;1.40;;;10.50;99.90;;;;;;5362264;26;20484;-70
2024/04/10 00:14:26;;;;;;;15.43;1.77;;;10.40;99.90;;;;;;5362256;26;20927;-70
2024/04/10 00:16:52;;;;;;;1.50;1.20;;;10.40;99.90;;;;;;5363687;26;20813;-70
2024/04/10 00:19:23;;;;;;;1.53;0.90;;;10.40;99.90;;;;;;5353938;26;20491;-72
2024/04/10 00:21:53;;;;;;;1.63;1.13;;;10.40;99.90;;;;;;5357241;26;20248;-70
2024/04/10 00:24:22;;;;;;;1.00;0.90;;;10.30;99.90;;;;;;5357664;26;20882;-70
2024/04/10 00:26:49;;;;;;;2.50;1.27;;;10.30;99.90;;;;;;5358172;26;20478;-70
2024/04/10 00:29:17;;;;;;;1.60;1.50;;;10.30;99.90;;;;;;5353526;26;20829;-71
2024/04/10 00:31:45;;;;;;;1.07;0.70;;;10.30;99.90;;;;;;5359097;26;20577;-70
2024/04/10 00:34:16;;;;;;;18.30;1.70;;;10.30;99.90;;;;;;5347721;26;20918;-70
2024/04/10 00:36:44;;;;;;;5.33;3.13;;;10.30;99.90;;;;;;5352425;26;20470;-71
2024/04/10 00:39:16;;;;;;;6.03;1.70;;;10.40;99.90;;;;;;5357813;26;20494;-71
2024/04/10 00:41:42;;;;;;;3.37;2.00;;;10.20;99.90;;;;;;5351409;26;20588;-70
2024/04/10 00:44:13;;;;;;;1.00;0.67;;;10.20;99.90;;;;;;5362660;26;20538;-72
2024/04/10 00:46:39;;;;;;;1.63;1.00;;;10.20;99.90;;;;;;5351665;26;20333;-71
2024/04/10 00:49:08;;;;;;;1.80;0.97;;;10.20;99.90;;;;;;5360355;26;20446;-70
2024/04/10 00:51:34;;;;;;;1.00;0.70;;;10.20;99.90;;;;;;5346556;26;20526;-70
2024/04/10 00:54:05;;;;;;;1.00;0.83;;;10.10;99.90;;;;;;5348462;26;20583;-70
2024/04/10 00:56:31;;;;;;;1.60;1.40;;;10.20;99.90;;;;;;5369572;26;20458;-70
2024/04/10 00:59:00;;;;;;;7.83;2.43;;;10.20;99.90;;;;;;5355936;26;20543;-70
2024/04/10 01:01:26;;;;;;;7.00;1.30;;;10.10;99.90;;;;;;5359279;26;20457;-71
2024/04/10 01:03:55;;;;;;;6.87;1.47;;;10.10;99.90;;;;;;5344162;26;20559;-71
2024/04/10 01:06:29;;;;;;;1.40;1.07;;;10.20;99.90;;;;;;5351044;26;20364;-70
2024/04/10 01:08:57;;;;;;;2.80;1.20;;;10.20;99.90;;;;;;5357688;26;20500;-70
2024/04/10 01:11:26;;;;;;;1.03;0.83;;;10.20;99.90;;;;;;5348422;26;20711;-70
2024/04/10 01:13:57;;;;;;;4.17;1.67;;;10.20;99.90;;;;;;5348382;26;20574;-70
2024/04/10 01:16:23;;;;;;;3.40;1.70;;;10.10;99.90;;;;;;5354963;26;20532;-71
2024/04/10 01:18:51;;;;;;;1.10;1.00;;;10.10;99.90;;;;;;5352812;26;20741;-70
2024/04/10 01:21:17;;;;;;;2.10;1.30;;;10.10;99.90;;;;;;5338890;26;20269;-70
2024/04/10 01:23:48;;;;;;;2.33;2.13;;;9.90;99.90;;;;;;5354787;26;20634;-70
2024/04/10 01:26:14;;;;;;;8.23;1.73;;;9.80;99.90;;;;;;5342406;26;20236;-71
2024/04/10 01:28:42;;;;;;;5.43;1.33;;;9.90;99.90;;;;;;5351339;26;20606;-70
2024/04/10 01:31:08;;;;;;;2.60;1.10;;;9.90;99.90;;;;;;5346176;26;20866;-70
2024/04/10 01:33:37;;;;;;;11.57;1.67;;;9.90;99.90;;;;;;5360996;26;20482;-70
2024/04/10 01:36:03;;;;;;;3.47;2.10;;;9.90;99.90;;;;;;5354016;26;20585;-71
2024/04/10 01:38:33;;;;;;;2.00;1.70;;;9.90;99.90;;;;;;5363259;21;20477;-69
2024/04/10 01:41:02;;;;;;;6.10;2.50;;;9.90;99.90;;;;;;5347046;26;20524;-69
2024/04/10 01:43:30;;;;;;;6.90;1.80;;;9.80;99.90;;;;;;5331129;26;20549;-69
2024/04/10 01:45:56;;;;;;;33.73;3.53;;;9.80;99.90;;;;;;5337324;26;20489;-69
2024/04/10 01:48:25;;;;;;;7.57;2.73;;;9.90;99.90;;;;;;5343898;26;21807;-68
2024/04/10 01:50:51;;;;;;;11.13;1.70;;;9.90;99.90;;;;;;5337717;26;21094;-69
2024/04/10 01:53:19;;;;;;;2.17;1.40;;;9.80;99.90;;;;;;5344525;26;20510;-69
2024/04/10 01:55:45;;;;;;;6.83;2.10;;;9.80;99.90;;;;;;5346102;26;20884;-69
2024/04/10 01:58:16;;;;;;;2.47;1.37;;;9.80;99.90;;;;;;5340045;26;20456;-69
2024/04/10 02:00:42;;;;;;;3.77;1.40;;;9.70;99.90;;;;;;5341861;26;21014;-68
2024/04/10 02:03:11;;;;;;;2.73;1.40;;;9.80;99.90;;;;;;5337598;26;20470;-70
2024/04/10 02:05:38;;;;;;;7.33;2.57;;;9.70;99.90;;;;;;5329411;26;20526;-70
2024/04/10 02:08:07;;;;;;;5.47;2.83;;;9.70;99.90;;;;;;5345979;26;20456;-69
2024/04/10 02:10:33;;;;;;;4.77;1.30;;;9.60;99.90;;;;;;5326995;26;21411;-69
2024/04/10 02:13:01;;;;;;;5.37;2.20;;;9.60;99.90;;;;;;5340148;26;20532;-70
2024/04/10 02:15:29;;;;;;;1.20;1.00;;;9.60;99.90;;;;;;5333982;26;20244;-70
2024/04/10 02:17:58;;;;;;;2.77;1.70;;;9.60;99.90;;;;;;5338835;26;20959;-70
2024/04/10 02:20:24;;;;;;;1.87;1.03;;;9.70;99.90;;;;;;5340664;26;20512;-69
2024/04/10 02:22:52;;;;;;;10.67;2.47;;;9.70;99.90;;;;;;5342751;26;20925;-69
2024/04/10 02:25:18;;;;;;;3.33;1.30;;;9.60;99.90;;;;;;5350572;26;20240;-70
2024/04/10 02:27:46;;;;;;;2.57;1.40;;;9.60;99.90;;;;;;5350084;26;20590;-70
2024/04/10 02:30:12;;;;;;;1.50;1.00;;;9.50;99.90;;;;;;5334002;26;20248;-70
2024/04/10 02:32:43;;;;;;;10.43;1.63;;;9.50;99.90;;;;;;5332467;26;20576;-70
2024/04/10 02:35:09;;;;;;;3.63;2.33;;;9.40;99.90;;;;;;5346743;26;20255;-70
2024/04/10 02:37:37;;;;;;;1.77;1.37;;;9.40;99.90;;;;;;5343960;26;20511;-71
2024/04/10 02:40:05;;;;;;;5.40;2.10;;;9.40;99.90;;;;;;5343964;26;20307;-70
2024/04/10 02:42:34;;;;;;;22.20;1.93;;;9.40;99.90;;;;;;5341486;26;20507;-70
2024/04/10 02:45:00;;;;;;;1.80;1.43;;;9.40;99.90;;;;;;5355363;26;20628;-71
2024/04/10 02:47:28;;;;;;;6.73;1.17;;;9.40;99.90;;;;;;5354320;26;20435;-70
2024/04/10 02:49:57;;;;;;;13.30;1.90;;;9.40;99.90;;;;;;5342298;26;20237;-71
2024/04/10 02:52:25;;;;;;;4.00;1.60;;;9.40;99.90;;;;;;5341480;26;20586;-70
2024/04/10 02:54:51;;;;;;;4.10;1.87;;;9.40;99.90;;;;;;5350422;26;20593;-70
2024/04/10 02:57:19;;;;;;;6.17;2.00;;;9.30;99.90;;;;;;5341765;26;21006;-71
2024/04/10 02:59:45;;;;;;;4.10;1.83;;;9.30;99.90;;;;;;5339617;26;20762;-70
2024/04/10 03:02:13;;;;;;;5.70;1.73;;;9.30;99.90;;;;;;5333585;26;20595;-70
2024/04/10 03:04:40;;;;;;;5.20;2.57;;;9.30;99.90;;;;;;5341742;26;20753;-69
2024/04/10 03:07:11;;;;;;;3.13;1.97;;;9.20;99.90;;;;;;5344898;26;20454;-68
2024/04/10 03:09:36;;;;;;;12.63;3.50;;;9.30;99.90;;;;;;5348679;26;20453;-69
2024/04/10 03:12:07;;;;;;;5.00;1.80;;;9.30;99.90;;;;;;5346355;26;20434;-69
2024/04/10 03:14:33;;;;;;;9.00;1.37;;;9.30;99.90;;;;;;5340171;26;20284;-70
2024/04/10 03:17:02;;;;;;;11.23;2.30;;;9.20;99.90;;;;;;5340987;26;20531;-70
2024/04/10 03:19:28;;;;;;;7.27;2.10;;;9.20;99.90;;;;;;5341348;26;20467;-69
2024/04/10 03:21:57;;;;;;;3.60;2.40;;;9.20;99.90;;;;;;5337967;26;21028;-69
2024/04/10 03:24:25;;;;;;;2.03;1.53;;;9.10;99.90;;;;;;5339282;26;20577;-69
2024/04/10 03:26:53;;;;;;;10.17;1.70;;;9.10;99.90;;;;;;5352744;26;20471;-68
2024/04/10 03:29:20;;;;;;;1.90;1.30;;;9.20;99.90;;;;;;5339675;26;20537;-69
2024/04/10 03:31:48;;;;;;;6.73;2.00;;;9.20;99.90;;;;;;5331511;26;20457;-69
2024/04/10 03:34:14;;;;;;;4.80;2.20;;;9.20;99.90;;;;;;5336820;26;20236;-69
2024/04/10 03:36:43;;;;;;;20.33;2.60;;;9.20;99.90;;;;;;5340956;26;20547;-69
2024/04/10 03:39:09;;;;;;;2.40;2.20;;;9.20;99.90;;;;;;5342017;26;20255;-69
2024/04/10 03:41:40;;;;;;;4.40;1.40;;;9.20;99.90;;;;;;5340776;26;20904;-69
2024/04/10 03:44:08;;;;;;;10.37;1.37;;;9.10;99.90;;;;;;5361903;26;20257;-70
2024/04/10 03:46:37;;;;;;;3.63;2.20;;;9.10;99.90;;;;;;5323703;26;20513;-69
2024/04/10 03:49:05;;;;;;;4.50;1.87;;;9.10;99.90;;;;;;5336096;26;20667;-70
2024/04/10 03:51:34;;;;;;;5.73;1.90;;;9.20;99.90;;;;;;5340386;26;20529;-69
2024/04/10 03:54:00;;;;;;;4.70;1.90;;;9.20;99.90;;;;;;5330035;26;20577;-70
2024/04/10 03:56:31;;;;;;;11.80;2.93;;;9.20;99.90;;;;;;5339960;26;20957;-70
2024/04/10 03:59:00;;;;;;;4.93;1.63;;;9.20;99.90;;;;;;5338783;26;20240;-70
2024/04/10 04:01:29;;;;;;;6.97;2.20;;;9.20;99.90;;;;;;5337772;26;20515;-70
2024/04/10 04:03:54;;;;;;;6.00;2.10;;;9.20;99.90;;;;;;5348155;26;20523;-69
2024/04/10 04:06:23;;;;;;;3.37;1.53;;;9.20;99.90;;;;;;5339786;26;20918;-69
2024/04/10 04:08:51;;;;;;;7.83;1.90;;;9.20;99.90;;;;;;5347936;26;21711;-71
2024/04/10 04:11:20;;;;;;;6.33;2.23;;;9.30;99.90;;;;;;5342807;26;20486;-71
2024/04/10 04:13:46;;;;;;;9.07;3.93;;;9.30;99.90;;;;;;5333480;26;20463;-70
2024/04/10 04:16:17;;;;;;;2.27;1.50;;;9.30;99.90;;;;;;5340137;26;20543;-70
2024/04/10 04:18:43;;;;;;;3.10;2.17;;;9.30;99.90;;;;;;5346077;26;21101;-71
2024/04/10 04:21:12;;;;;;;2.37;2.00;;;9.30;99.90;;;;;;5334808;26;20453;-71
2024/04/10 04:23:38;;;;;;;1.57;1.20;;;9.30;99.90;;;;;;5337673;26;20521;-70
2024/04/10 04:26:06;;;;;;;6.03;1.60;;;9.40;99.90;;;;;;5355702;26;21309;-70
2024/04/10 04:28:32;;;;;;;7.00;2.83;;;9.30;99.90;;;;;;5345494;26;20905;-71
2024/04/10 04:31:00;;;;;;;5.37;1.90;;;9.30;99.90;;;;;;5344877;26;21357;-71
2024/04/10 04:33:29;;;;;;;1.60;1.40;;;9.30;99.90;;;;;;5339978;26;20742;-71
2024/04/10 04:35:57;;;;;;;6.90;2.57;;;9.30;99.90;;;;;;5343958;26;20508;-71
2024/04/10 04:38:23;;;;;;;5.90;2.30;;;9.40;99.90;;;;;;5348237;26;20517;-71
2024/04/10 04:40:52;;;;;;;16.50;2.63;;;9.40;99.90;;;;;;5335187;26;20490;-71
2024/04/10 04:43:17;;;;;;;9.57;2.30;;;9.40;99.90;;;;;;5350805;26;20252;-70
2024/04/10 04:45:46;;;;;;;5.87;2.00;;;9.50;99.90;;;;;;5331214;26;21087;-70
2024/04/10 04:48:12;;;;;;;3.80;1.60;;;9.60;99.90;;;;;;5340728;26;20354;-69
2024/04/10 04:50:44;;;;;;;7.77;1.57;;;9.50;99.90;;;;;;5351560;26;20483;-70
2024/04/10 04:53:10;;;;;;;13.17;1.27;;;9.70;99.90;;;;;;5357163;26;20287;-70
2024/04/10 04:55:39;;;;;;;4.30;1.77;;;9.70;99.90;;;;;;5344309;26;20528;-71
2024/04/10 04:58:05;;;;;;;7.67;1.80;;;9.80;99.90;;;;;;5351339;26;20522;-71
2024/04/10 05:00:33;;;;;;;3.77;2.40;;;9.80;99.90;;;;;;5334854;26;20467;-71
2024/04/10 05:03:00;;;;;;;2.63;1.70;;;9.80;99.90;;;;;;5348675;26;21271;-70
2024/04/10 05:05:29;;;;;;;3.73;1.50;;;9.70;99.90;;;;;;5348326;26;20553;-70
2024/04/10 05:08:00;;;;;;;3.83;1.60;;;9.70;99.90;;;;;;5345340;26;20614;-71
2024/04/10 05:10:28;;;;;;;13.63;2.23;;;9.80;99.90;;;;;;5332024;26;20483;-70
2024/04/10 05:12:54;;;;;;;11.03;2.90;;;9.80;99.90;;;;;;5345727;26;20558;-70
2024/04/10 05:15:23;;;;;;;5.50;1.30;;;9.80;99.90;;;;;;5332466;26;20626;-70
2024/04/10 05:17:49;;;;;;;8.63;1.97;;;9.80;99.90;;;;;;5348544;26;20299;-70
2024/04/10 05:20:17;;;;;;;12.73;2.17;;;9.80;99.90;;;;;;5346403;26;21102;-70
2024/04/10 05:22:44;;;;;;;4.10;1.60;;;9.70;99.90;;;;;;5330935;26;20624;-70
2024/04/10 05:25:15;;;;;;;3.23;2.27;;;9.70;99.90;;;;;;5340940;26;20467;-70
2024/04/10 05:27:41;;;;;;;8.87;2.50;;;9.70;99.90;;;;;;5341386;26;20450;-70
2024/04/10 05:30:12;;;;;;;8.97;2.40;;;9.90;99.90;;;;;;5331658;26;20471;-71
2024/04/10 05:32:39;;;;;;;6.10;2.77;;;10.00;99.90;;;;;;5339330;26;21790;-70
2024/04/10 05:35:10;;;;;;;2.00;1.33;;;9.90;99.90;;;;;;5351052;26;20502;-70
2024/04/10 05:37:36;;;;;;;2.57;1.70;;;10.00;99.90;;;;;;5341686;26;20575;-71
2024/04/10 05:40:06;;;;;;;2.63;1.97;;;10.00;99.90;;;;;;5345651;26;20585;-69
2024/04/10 05:42:39;;;;;;;5.63;1.70;;;10.00;99.90;;;;;;5349637;26;20572;-69
2024/04/10 05:45:07;;;;;;;5.13;2.70;;;10.00;99.90;;;;;;5338010;26;20530;-69
2024/04/10 05:47:36;;;;;;;3.57;2.00;;;9.90;99.90;;;;;;5344242;26;20574;-68
2024/04/10 05:50:02;;;;;;;8.43;1.73;;;9.90;99.90;;;;;;5339919;26;20487;-70
2024/04/10 05:52:30;;;;;;;5.00;2.77;;;9.90;99.90;;;;;;5337313;26;20994;-69
2024/04/10 05:54:56;;;;;;;2.90;1.67;;;9.80;99.90;;;;;;5342384;26;21203;-69
2024/04/10 05:57:27;;;;;;;6.80;1.60;;;9.80;99.90;;;;;;5344235;26;20452;-69
2024/04/10 05:59:56;;;;;;;20.83;2.87;;;10.00;99.90;;;;;;5352407;26;20660;-70
2024/04/10 06:02:26;;;;;;;2.13;1.87;;;10.00;99.90;;;;;;5350145;26;20607;-70
2024/04/10 06:04:52;;;;;;;7.40;1.87;;;10.00;99.90;;;;;;5347443;26;20535;-69
2024/04/10 06:07:21;;;;;;;8.27;2.80;;;10.10;99.90;;;;;;5356381;26;21022;-70
2024/04/10 06:09:50;;;;;;;8.47;2.20;;;10.10;99.90;;;;;;5336747;26;20248;-70
2024/04/10 06:12:19;;;;;;;3.53;1.83;;;10.10;99.90;;;;;;5343926;26;20495;-70
2024/04/10 06:14:45;;;;;;;3.60;2.03;;;10.10;99.90;;;;;;5333510;26;20563;-69
2024/04/10 06:17:16;;;;;;;2.80;1.80;;;10.10;99.90;;;;;;5341942;26;20522;-70
2024/04/10 06:19:42;;;;;;;5.87;2.53;;;10.00;99.90;;;;;;5340324;26;20559;-69
2024/04/10 06:22:10;;;;;;;2.63;2.30;;;10.00;99.90;;;;;;5354438;26;21004;-69
2024/04/10 06:24:36;;;;;;;2.87;1.90;;;10.10;99.90;;;;;;5340379;26;20450;-69
2024/04/10 06:27:04;;;;;;;8.83;1.60;;;10.20;99.90;;;;;;5345188;26;20845;-69
2024/04/10 06:29:30;;;;;;;3.63;3.33;;;10.10;99.90;;;;;;5339527;26;20369;-68
2024/04/10 06:31:58;;;;;;;2.53;1.97;;;10.20;99.90;;;;;;5339165;26;20524;-69
2024/04/10 06:34:27;;;;;;;6.10;2.57;;;10.10;99.90;;;;;;5351857;26;20303;-69
2024/04/10 06:36:55;;;;;;;3.47;2.37;;;10.20;99.90;;;;;;5341833;26;20601;-69
2024/04/10 06:39:21;;;;;;;2.87;2.10;;;10.20;99.90;;;;;;5353401;26;20608;-69
2024/04/10 06:41:50;;;;;;;8.67;2.30;;;10.40;99.90;;;;;;5336200;26;20503;-70
2024/04/10 06:44:15;;;;;;;3.37;1.87;;;10.50;99.90;;;;;;5342172;26;20291;-70
2024/04/10 06:46:44;;;;;;;3.47;1.90;;;10.50;99.90;;;;;;5341640;26;20483;-68
2024/04/10 06:49:11;;;;;;;0.90;0.60;;;10.50;99.90;;;;;;5359696;26;20452;-69
2024/04/10 06:51:42;;;;;;;2.90;1.97;;;10.60;99.90;;;;;;5345571;26;20849;-69
2024/04/10 06:54:08;;;;;;;1.90;1.80;;;10.70;99.90;;;;;;5363412;26;20660;-69
2024/04/10 06:56:37;;;;;;;0.90;0.70;;;11.00;99.90;;;;;;5359856;26;21100;-69
2024/04/10 06:59:03;;;;;;;5.27;2.30;;;11.00;99.90;;;;;;5352651;26;20437;-70
2024/04/10 07:01:31;;;;;;;0.90;0.70;;;11.10;99.90;;;;;;5355638;26;20486;-70
2024/04/10 07:03:57;;;;;;;1.50;1.30;;;11.00;99.90;;;;;;5351315;26;20487;-69
2024/04/10 07:06:25;;;;;;;0.90;0.60;;;11.00;99.90;;;;;;5360787;26;20554;-69
2024/04/10 07:08:55;;;;;;;0.90;0.60;;;11.00;99.90;;;;;;5343312;26;20294;-70
2024/04/10 07:11:23;;;;;;;0.90;0.60;;;11.00;99.90;;;;;;5353143;26;20524;-70
2024/04/10 07:13:50;;;;;;;1.30;1.20;;;11.10;99.90;;;;;;5344002;26;20448;-69
2024/04/10 07:16:19;;;;;;;0.90;0.60;;;11.10;99.90;;;;;;5338399;26;20458;-69
2024/04/10 07:18:46;;;;;;;2.00;1.63;;;11.20;99.90;;;;;;5345506;26;20569;-69
2024/04/10 07:21:16;;;;;;;0.90;0.60;;;11.40;99.90;;;;;;5345856;26;20652;-69
2024/04/10 07:23:45;;;;;;;0.90;0.60;;;11.40;99.90;;;;;;5338446;26;20491;-69
2024/04/10 07:26:17;;;;;;;0.90;0.60;;;11.70;99.90;;;;;;5345841;26;21033;-69
2024/04/10 07:28:44;;;;;;;1.00;0.90;;;11.80;99.90;;;;;;5329372;26;20613;-68
2024/04/10 07:31:14;;;;;;;2.37;1.43;;;11.90;99.90;;;;;;5339673;26;20472;-69
2024/04/10 07:33:39;;;;;;;1.00;0.60;;;12.00;99.90;;;;;;5332086;26;20582;-70
2024/04/10 07:36:12;;;;;;;1.00;0.60;;;12.00;99.90;;;;;;5341148;26;20486;-69
2024/04/10 07:38:38;;;;;;;1.00;0.70;;;12.30;99.90;;;;;;5343277;26;20244;-69
2024/04/10 07:41:10;;;;;;;1.40;0.80;;;12.70;99.90;;;;;;5350317;26;20594;-69
2024/04/10 07:43:39;;;;;;;0.90;0.60;;;13.00;99.90;;;;;;5339629;26;20401;-71
2024/04/10 07:46:09;;;;;;;0.90;0.60;;;13.00;99.90;;;;;;5340671;26;20479;-70
2024/04/10 07:48:35;;;;;;;0.90;0.60;;;12.80;99.90;;;;;;5356191;26;20577;-71
2024/04/10 07:51:04;;;;;;;0.93;0.60;;;12.90;99.90;;;;;;5342093;26;21071;-71
2024/04/10 07:53:32;;;;;;;0.90;0.60;;;12.90;99.90;;;;;;5345320;26;20479;-71
2024/04/10 07:56:01;;;;;;;1.40;1.30;;;12.70;99.90;;;;;;5339980;26;20935;-71
2024/04/10 07:58:27;;;;;;;0.93;0.60;;;12.50;99.90;;;;;;5330670;26;20511;-68
2024/04/10 08:00:59;;;;;;;3.77;1.33;;;12.40;99.90;;;;;;5338434;26;20531;-69
2024/04/10 08:03:26;;;;;;;0.90;0.60;;;12.30;99.90;;;;;;5340425;26;20810;-71
2024/04/10 08:05:55;;;;;;;0.97;0.60;;;12.20;99.90;;;;;;5346841;26;20471;-70
2024/04/10 08:08:21;;;;;;;0.93;0.60;;;11.90;99.90;;;;;;5355370;26;20454;-70
2024/04/10 08:10:50;;;;;;;0.90;0.60;;;12.00;99.90;;;;;;5331983;26;20479;-70
2024/04/10 08:13:16;;;;;;;1.00;0.60;;;12.10;99.90;;;;;;5334693;26;20608;-69
2024/04/10 08:15:45;;;;;;;3.60;1.33;;;12.30;99.90;;;;;;5333112;26;20483;-71
2024/04/10 08:18:14;;;;;;;0.90;0.60;;;12.50;99.90;;;;;;5356832;26;20240;-69
2024/04/10 08:20:43;;;;;;;1.10;0.70;;;12.60;99.90;;;;;;5347901;26;20479;-69
2024/04/10 08:23:08;;;;;;;0.90;0.70;;;12.70;99.90;;;;;;5345809;26;20564;-70
2024/04/10 08:25:38;;;;;;;0.93;0.60;;;13.00;99.90;;;;;;5331462;26;20588;-70
2024/04/10 08:28:04;;;;;;;0.90;0.60;;;13.20;99.90;;;;;;5333696;26;20248;-70
2024/04/10 08:30:32;;;;;;;1.13;1.03;;;13.00;99.90;;;;;;5341616;26;20478;-72
2024/04/10 08:32:58;;;;;;;0.90;0.60;;;12.90;99.90;;;;;;5342412;26;20594;-72
2024/04/10 08:35:29;;;;;;;0.90;0.60;;;13.00;99.90;;;;;;5336558;26;20569;-70
2024/04/10 08:37:55;;;;;;;1.93;1.63;;;12.70;99.90;;;;;;5330749;26;20975;-68
2024/04/10 08:40:25;;;;;;;0.90;0.60;;;12.50;99.90;;;;;;5338144;26;20561;-69
2024/04/10 08:42:52;;;;;;;0.97;0.70;;;12.30;99.90;;;;;;5325729;26;20541;-70
2024/04/10 08:45:25;;;;;;;2.97;1.63;;;12.10;99.90;;;;;;5344087;26;20481;-68
2024/04/10 08:47:52;;;;;;;1.00;0.80;;;12.10;99.90;;;;;;5342216;26;20519;-69
2024/04/10 08:50:20;;;;;;;0.90;0.60;;;12.20;99.90;;;;;;5353341;26;20518;-69
2024/04/10 08:52:50;;;;;;;0.97;0.60;;;12.20;99.90;;;;;;5350539;26;20501;-69
2024/04/10 08:55:19;;;;;;;0.90;0.60;;;12.30;99.90;;;;;;5345405;26;21055;-69
2024/04/10 08:57:45;;;;;;;0.90;0.60;;;12.40;99.90;;;;;;5338740;26;20491;-69
2024/04/10 09:00:14;;;;;;;0.90;0.60;;;12.40;99.90;;;;;;5342684;26;20520;-70
2024/04/10 09:02:39;;;;;;;1.00;0.60;;;12.60;99.90;;;;;;5349463;26;20261;-68
2024/04/10 09:05:08;;;;;;;1.00;0.70;;;13.10;99.90;;;;;;5349555;26;21047;-69
2024/04/10 09:07:34;;;;;;;1.00;0.60;;;13.50;99.90;;;;;;5337228;26;20368;-70
2024/04/10 09:10:13;;;;;;;1.00;0.80;;;14.40;99.90;;;;;;5334923;26;20487;-69
2024/04/10 09:12:41;;;;;;;1.00;0.60;;;15.10;99.90;;;;;;5350781;26;20294;-69
2024/04/10 09:15:11;;;;;;;3.77;3.27;;;14.90;99.90;;;;;;5331140;26;20863;-71
2024/04/10 09:17:37;;;;;;;12.43;4.10;;;14.70;99.90;;;;;;5321609;26;20530;-72
2024/04/10 09:20:16;;;;;;;9.10;5.60;;;14.80;99.90;;;;;;5331970;26;20507;-71
2024/04/10 09:22:43;;;;;;;7.77;3.37;;;14.70;99.90;;;;;;5329089;26;20772;-70
2024/04/10 09:25:15;;;;;;;5.43;4.10;;;14.70;99.90;;;;;;5333396;26;20466;-69
2024/04/10 09:27:42;;;;;;;7.50;3.07;;;15.10;99.90;;;;;;5324779;26;20525;-69
2024/04/10 09:30:11;;;;;;;11.27;5.07;;;15.10;99.90;;;;;;5349220;26;20451;-69
2024/04/10 09:32:37;;;;;;;2.10;1.90;;;15.30;99.90;;;;;;5333127;26;20535;-70
2024/04/10 09:35:06;;;;;;;1.20;1.00;;;15.00;99.90;;;;;;5331836;26;20592;-69
2024/04/10 09:37:34;;;;;;;1.97;1.63;;;14.70;99.90;;;;;;5355447;26;20371;-71
2024/04/10 09:40:03;;;;;;;1.20;1.10;;;14.60;99.90;;;;;;5340224;26;20479;-69
2024/04/10 09:42:32;;;;;;;1.00;0.60;;;14.50;99.90;;;;;;5343979;26;20912;-70
2024/04/10 09:45:06;;;;;;;1.00;0.60;;;14.30;99.90;;;;;;5339049;26;21175;-69
2024/04/10 09:47:32;;;;;;;1.00;0.60;;;14.20;99.90;;;;;;5342244;26;20896;-71
2024/04/10 09:50:02;;;;;;;1.00;0.70;;;14.20;99.90;;;;;;5340360;26;20496;-71
2024/04/10 09:52:28;;;;;;;1.00;0.60;;;14.40;99.90;;;;;;5338619;26;20874;-71
2024/04/10 09:54:59;;;;;;;5.53;3.20;;;14.70;99.90;;;;;;5336893;26;20536;-70
2024/04/10 09:57:25;;;;;;;8.87;4.70;;;15.10;99.90;;;;;;5331966;26;20487;-71
2024/04/10 09:59:57;;;;;;;19.93;5.50;;;15.60;99.90;;;;;;5336402;26;20539;-70
2024/04/10 10:02:23;;;;;;;3.03;2.80;;;15.50;99.90;;;;;;5336873;26;20625;-71
2024/04/10 10:04:51;;;;;;;5.70;4.20;;;15.20;99.90;;;;;;5325154;26;20489;-71
2024/04/10 10:07:20;;;;;;;7.40;4.73;;;14.90;99.90;;;;;;5325779;26;20481;-69
2024/04/10 10:09:50;;;;;;;6.00;3.60;;;15.30;99.90;;;;;;5333571;26;20452;-70
2024/04/10 10:12:24;;;;;;;6.83;3.60;;;15.50;99.90;;;;;;5333402;26;20482;-70
2024/04/10 10:14:55;;;;;;;4.93;3.47;;;15.60;99.90;;;;;;5346108;26;21114;-69
2024/04/10 10:17:26;;;;;;;6.40;2.73;;;15.50;99.90;;;;;;5347590;26;20475;-69
2024/04/10 10:19:55;;;;;;;7.83;3.43;;;15.40;99.90;;;;;;5332089;26;20521;-70
2024/04/10 10:22:21;;;;;;;5.33;3.13;;;15.10;99.90;;;;;;5325885;26;20498;-70
2024/04/10 10:24:58;;;;;;;6.13;3.30;;;14.90;99.90;;;;;;5332948;26;20535;-69
2024/04/10 10:27:24;;;;;;;15.43;3.13;;;15.00;99.90;;;;;;5331886;26;20252;-70
2024/04/10 10:30:06;;;;;;;5.97;3.50;;;14.80;99.90;;;;;;5341932;26;20477;-70
2024/04/10 10:32:32;;;;;;;3.60;3.30;;;14.80;99.90;;;;;;5335973;26;20482;-70
2024/04/10 10:35:08;;;;;;;5.50;2.63;;;14.80;99.90;;;;;;5338170;26;21036;-71
2024/04/10 10:37:34;;;;;;;4.40;2.70;;;14.90;99.90;;;;;;5333328;26;21361;-71
2024/04/10 10:40:06;;;;;;;7.10;2.80;;;14.90;99.90;;;;;;5328923;26;20475;-71
2024/04/10 10:42:32;;;;;;;4.37;2.80;;;14.90;99.90;;;;;;5346618;26;20514;-70
2024/04/10 10:45:09;;;;;;;12.20;4.73;;;15.10;99.90;;;;;;5338563;26;20686;-70
2024/04/10 10:47:38;;;;;;;4.43;2.60;;;14.90;99.90;;;;;;5350414;26;20338;-70
2024/04/10 10:50:07;;;;;;;7.67;2.93;;;14.80;99.90;;;;;;5338037;26;20535;-71
2024/04/10 10:52:33;;;;;;;8.43;3.90;;;14.70;99.90;;;;;;5341351;26;20485;-72
2024/04/10 10:55:07;;;;;;;3.80;3.00;;;14.90;99.90;;;;;;5345019;26;20468;-71
2024/04/10 10:57:33;;;;;;;5.37;2.77;;;16.20;99.90;;;;;;5357173;26;20635;-71
2024/04/10 11:00:02;;;;;;;3.17;2.40;;;17.10;99.90;;;;;;5345347;26;20570;-72
2024/04/10 11:02:30;;;;;;;7.53;3.30;;;17.50;99.90;;;;;;5345255;26;20372;-71
2024/04/10 11:05:08;;;;;;;3.30;3.00;;;17.60;99.90;;;;;;5343588;26;20548;-71
2024/04/10 11:07:34;;;;;;;3.27;2.87;;;17.10;99.90;;;;;;5347382;26;20629;-71
2024/04/10 11:10:08;;;;;;;5.93;2.70;;;16.50;99.90;;;;;;5337256;26;20718;-71
2024/04/10 11:12:34;;;;;;;3.90;2.50;;;15.80;99.90;;;;;;5341575;26;20261;-71
2024/04/10 11:15:08;;;;;;;2.60;2.40;;;15.30;99.90;;;;;;5351695;26;21150;-71
2024/04/10 11:17:37;;;;;;;3.70;2.70;;;15.00;99.90;;;;;;5353321;26;20271;-71
2024/04/10 11:20:08;;;;;;;10.67;3.50;;;14.90;99.90;;;;;;5345815;26;20589;-70
2024/04/10 11:22:34;;;;;;;3.40;2.23;;;14.80;99.90;;;;;;5340634;26;20495;-71
2024/04/10 11:25:02;;;;;;;9.00;4.90;;;14.80;99.90;;;;;;5332254;26;20466;-70
2024/04/10 11:27:28;;;;;;;2.70;2.50;;;14.60;99.90;;;;;;5323012;26;20349;-71
2024/04/10 11:29:58;;;;;;;6.27;2.10;;;14.70;99.90;;;;;;5334704;26;20471;-70
2024/04/10 11:32:24;;;;;;;5.60;2.80;;;14.60;99.90;;;;;;5331104;26;20335;-70
2024/04/10 11:34:58;;;;;;;7.07;2.00;;;14.60;99.90;;;;;;5341248;26;20485;-71
2024/04/10 11:37:24;;;;;;;4.97;2.70;;;14.80;99.90;;;;;;5339804;26;20282;-71
2024/04/10 11:39:53;;;;;;;9.60;3.40;;;15.10;99.90;;;;;;5343593;26;20483;-71
2024/04/10 11:42:19;;;;;;;1.30;1.10;;;15.60;99.90;;;;;;5350559;26;20532;-72
2024/04/10 11:44:47;;;;;;;6.00;2.70;;;15.90;99.90;;;;;;5341353;26;20482;-71
2024/04/10 11:47:13;;;;;;;9.43;2.90;;;15.90;99.90;;;;;;5335837;26;20678;-71
2024/04/10 11:49:44;;;;;;;6.30;3.50;;;16.00;99.90;;;;;;5337581;26;20606;-71
2024/04/10 11:52:13;;;;;;;4.83;3.67;;;16.10;99.90;;;;;;5350276;26;20387;-71
2024/04/10 11:54:41;;;;;;;5.27;3.40;;;15.80;99.90;;;;;;5345029;26;20613;-71
2024/04/10 11:57:07;;;;;;;4.07;2.70;;;15.30;99.90;;;;;;5330729;26;20487;-71
2024/04/10 11:59:35;;;;;;;6.93;2.70;;;15.10;99.90;;;;;;5335249;26;20599;-72
2024/04/10 12:02:01;;;;;;;6.67;2.73;;;15.10;99.90;;;;;;5337737;26;20357;-72
2024/04/10 12:04:29;;;;;;;7.43;2.63;;;15.10;99.90;;;;;;5335637;26;20532;-72
2024/04/10 12:06:55;;;;;;;4.40;2.77;;;15.10;99.90;;;;;;5345837;26;20248;-71
2024/04/10 12:09:27;;;;;;;7.50;2.30;;;15.20;99.90;;;;;;5320911;26;26774;-71
2024/04/10 12:11:53;;;;;;;4.43;3.90;;;15.40;99.90;;;;;;5343201;26;20241;-71
2024/04/10 12:14:22;;;;;;;3.90;2.17;;;15.50;99.90;;;;;;5342350;26;20929;-71
2024/04/10 12:16:48;;;;;;;5.77;3.00;;;15.60;99.90;;;;;;5333253;26;20621;-72
2024/04/10 12:19:16;;;;;;;3.33;2.33;;;16.10;99.90;;;;;;5336508;26;20476;-71
2024/04/10 12:21:45;;;;;;;2.40;1.90;;;16.60;99.90;;;;;;5334636;26;20248;-71
2024/04/10 12:24:13;;;;;;;6.60;2.30;;;17.00;99.90;;;;;;5328064;26;20478;-71
2024/04/10 12:26:42;;;;;;;7.27;2.50;;;17.60;99.90;;;;;;5331992;26;20467;-71
2024/04/10 12:29:10;;;;;;;9.13;2.43;;;17.50;99.90;;;;;;5337892;26;22215;-70
2024/04/10 12:31:37;;;;;;;3.27;1.93;;;17.20;99.90;;;;;;5338399;26;20526;-71
2024/04/10 12:34:06;;;;;;;2.67;1.57;;;17.00;99.90;;;;;;5353115;26;20479;-71
2024/04/10 12:39:19;;;;;;;7.03;1.37;;;20.00;99.90;;;;;;5334303;26;21125;-71
2024/04/10 12:41:51;;;;;;;8.50;3.40;;;21.20;99.90;;;;;;5340613;26;20566;-71
2024/04/10 12:44:20;;;;;;;3.40;1.93;;;20.60;99.90;;;;;;5339813;26;20838;-71
2024/04/10 12:46:48;;;;;;;5.83;1.63;;;19.90;99.90;;;;;;5344976;26;20484;-72
2024/04/10 12:49:17;;;;;;;2.00;1.70;;;19.20;99.30;;;;;;5343805;26;20690;-72
2024/04/10 12:51:44;;;;;;;2.33;1.30;;;18.90;98.50;;;;;;5363881;26;20694;-71
2024/04/10 12:54:12;;;;;;;1.90;1.60;;;18.30;97.60;;;;;;5358320;26;20898;-71
2024/04/10 12:56:38;;;;;;;3.37;1.23;;;17.80;99.10;;;;;;5339164;26;20543;-70
2024/04/10 12:59:11;;;;;;;3.33;1.40;;;17.50;99.60;;;;;;5355673;26;20465;-71